Time;durP1;ratioP1;P1;durP2;ratioP2;P2;SDS_P1;SDS_P2;PMS_P1;PMS_P2;Temp;Humidity;BMP_temperature;BMP_pressure;BME280_temperature;BME280_humidity;BME280_pressure;Samples;Min_cycle;Max_cycle;Signal;HPM_P1;HPM_P2
2022/12/05 00:01:21;;;;;;;0.00;0.00;;;;;;;9.09;58.16;96039.78;5072211;28;20291;-62
2022/12/05 00:03:50;;;;;;;0.50;0.50;;;;;;;8.85;58.59;96045.88;5072433;28;20286;-62
2022/12/05 00:06:17;;;;;;;3.90;0.68;;;;;;;8.73;59.05;96031.94;5058105;28;20200;-62
2022/12/05 00:08:45;;;;;;;0.20;0.20;;;;;;;8.96;58.47;96042.56;5072285;28;20206;-63
2022/12/05 00:11:43;;;;;;;0.00;0.00;;;;;;;8.28;60.75;96038.38;5072112;28;20327;-64
2022/12/05 00:14:12;;;;;;;0.00;0.00;;;;;;;8.29;60.98;96044.38;5043901;28;20212;-64
2022/12/05 00:16:41;;;;;;;0.00;0.00;;;;;;;8.80;58.87;96043.13;5066343;28;20216;-63
2022/12/05 00:19:13;;;;;;;0.10;0.10;;;;;;;8.99;58.43;96041.31;5063588;28;20299;-64
2022/12/05 00:21:41;;;;;;;0.05;0.05;;;;;;;8.64;59.02;96051.53;5071665;28;20199;-63
2022/12/05 00:24:11;;;;;;;0.20;0.20;;;;;;;8.82;58.61;96043.72;5071808;28;20198;-63
2022/12/05 00:26:38;;;;;;;0.00;0.00;;;;;;;8.72;58.92;96046.00;5072257;28;20210;-63
2022/12/05 00:29:05;;;;;;;0.00;0.00;;;;;;;8.88;58.51;96055.91;5053617;28;20234;-63
2022/12/05 00:31:32;;;;;;;0.15;0.15;;;;;;;8.49;59.33;96051.03;5070168;28;20761;-63
2022/12/05 00:34:01;;;;;;;0.00;0.00;;;;;;;8.80;58.85;96045.72;5051507;28;20197;-62
2022/12/05 00:36:31;;;;;;;0.17;0.17;;;;;;;8.81;58.70;96049.94;5065211;28;20208;-62
2022/12/05 00:39:00;;;;;;;0.22;0.22;;;;;;;8.90;58.54;96048.66;5051892;28;20275;-63
2022/12/05 00:41:28;;;;;;;0.32;0.32;;;;;;;8.77;58.31;96054.00;5052235;28;20196;-63
2022/12/05 00:43:58;;;;;;;0.10;0.10;;;;;;;8.54;58.87;96053.03;5070777;28;20196;-63
2022/12/05 00:46:28;;;;;;;0.00;0.00;;;;;;;8.71;58.96;96059.28;5059975;28;20211;-63
2022/12/05 00:48:57;;;;;;;0.00;0.00;;;;;;;8.71;59.23;96060.09;5050942;28;20232;-63
2022/12/05 00:51:43;;;;;;;0.00;0.00;;;;;;;8.89;58.79;96052.28;5051217;28;20629;-62
2022/12/05 00:54:14;;;;;;;0.55;0.55;;;;;;;8.67;59.18;96050.28;5053172;28;20200;-63
2022/12/05 00:56:43;;;;;;;0.80;0.70;;;;;;;8.69;59.71;96056.91;5053825;28;20196;-62
2022/12/05 00:59:18;;;;;;;0.00;0.00;;;;;;;8.74;59.44;96057.03;5071392;28;20671;-62
2022/12/05 01:01:46;;;;;;;0.00;0.00;;;;;;;8.80;59.14;96053.56;5063066;28;20203;-62
2022/12/05 01:04:19;;;;;;;0.65;0.65;;;;;;;8.95;58.48;96035.75;5051291;28;20224;-65
2022/12/05 01:06:46;;;;;;;0.20;0.20;;;;;;;8.91;58.18;96034.56;5071076;28;20202;-64
2022/12/05 01:09:16;;;;;;;0.13;0.13;;;;;;;8.86;58.98;96037.03;5057250;28;20200;-62
2022/12/05 01:11:43;;;;;;;0.00;0.00;;;;;;;8.51;59.61;96027.31;5057193;28;20249;-61
2022/12/05 01:14:13;;;;;;;0.10;0.10;;;;;;;8.61;59.33;96028.41;5070959;28;20203;-61
2022/12/05 01:16:42;;;;;;;0.00;0.00;;;;;;;8.60;59.63;96032.06;5056768;28;20569;-63
2022/12/05 01:19:24;;;;;;;0.00;0.00;;;;;;;8.60;59.05;96026.84;5071126;28;20299;-63
2022/12/05 01:21:52;;;;;;;0.00;0.00;;;;;;;8.47;59.74;96037.41;5064399;28;20271;-62
2022/12/05 01:24:20;;;;;;;0.10;0.10;;;;;;;8.38;60.41;96038.69;5050841;28;20193;-62
2022/12/05 01:26:47;;;;;;;0.20;0.20;;;;;;;8.24;60.44;96037.19;5051871;28;20197;-62
2022/12/05 01:29:17;;;;;;;0.35;0.35;;;;;;;8.47;60.35;96033.97;5057182;28;20192;-62
2022/12/05 01:31:47;;;;;;;0.68;0.68;;;;;;;8.53;59.90;96030.50;5057015;28;20197;-64
2022/12/05 01:34:15;;;;;;;0.52;0.52;;;;;;;8.54;60.23;96026.91;5059751;28;20196;-62
2022/12/05 01:36:43;;;;;;;0.00;0.00;;;;;;;8.62;59.66;96011.75;5068377;28;20654;-62
2022/12/05 01:39:11;;;;;;;0.00;0.00;;;;;;;8.26;60.29;96016.09;5058273;28;20419;-62
2022/12/05 01:41:42;;;;;;;0.00;0.00;;;;;;;8.60;59.58;96016.38;5070124;28;20249;-63
2022/12/05 01:44:09;;;;;;;0.20;0.20;;;;;;;8.68;59.73;96013.50;5063225;28;20235;-62
2022/12/05 01:46:42;;;;;;;0.00;0.00;;;;;;;8.83;59.10;96011.31;5063129;28;20198;-62
2022/12/05 01:49:15;;;;;;;0.10;0.10;;;;;;;8.90;59.07;96000.81;5056010;28;20239;-63
2022/12/05 01:51:46;;;;;;;0.30;0.22;;;;;;;8.77;59.06;96001.75;5060286;28;20714;-61
2022/12/05 01:54:15;;;;;;;0.15;0.15;;;;;;;8.70;59.33;96003.63;5064051;28;20207;-62
2022/12/05 01:56:47;;;;;;;0.00;0.00;;;;;;;8.67;59.63;96006.66;5058968;28;20188;-62
2022/12/05 01:59:16;;;;;;;0.00;0.00;;;;;;;8.49;60.49;95998.81;5054287;28;20619;-63
2022/12/05 02:01:43;;;;;;;0.00;0.00;;;;;;;8.65;59.75;96003.47;5032377;28;20228;-62
2022/12/05 02:04:10;;;;;;;0.65;0.57;;;;;;;8.61;59.56;96002.28;5050105;28;20215;-63
2022/12/05 02:06:38;;;;;;;0.88;0.82;;;;;;;8.61;60.48;96010.13;5069631;28;20210;-62
2022/12/05 02:09:05;;;;;;;0.20;0.20;;;;;;;8.59;60.44;96009.56;5069616;28;20287;-62
2022/12/05 02:11:35;;;;;;;1.75;1.10;;;;;;;8.65;60.32;96008.69;5055307;28;20239;-61
2022/12/05 02:14:21;;;;;;;0.00;0.00;;;;;;;8.75;59.90;96019.47;5069913;28;20200;-63
2022/12/05 02:16:57;;;;;;;0.30;0.30;;;;;;;8.67;60.00;96011.88;5056174;28;20754;-62
2022/12/05 02:19:50;;;;;;;0.00;0.00;;;;;;;8.42;60.90;96012.94;5069567;28;20234;-61
2022/12/05 02:22:37;;;;;;;1.20;0.35;;;;;;;8.64;60.21;96017.56;5050094;28;20301;-63
2022/12/05 02:25:24;;;;;;;0.10;0.10;;;;;;;8.79;60.11;96012.78;5063488;28;20575;-63
2022/12/05 02:28:11;;;;;;;0.00;0.00;;;;;;;8.78;60.15;96003.34;5062772;28;20188;-62
2022/12/05 02:30:46;;;;;;;0.10;0.10;;;;;;;8.29;60.85;96006.00;5049226;28;20212;-62
2022/12/05 02:33:29;;;;;;;0.10;0.10;;;;;;;8.37;61.05;96010.97;5050873;28;20300;-62
2022/12/05 02:36:04;;;;;;;0.95;0.90;;;;;;;8.54;61.19;96006.78;5060016;28;20221;-61
2022/12/05 02:38:38;;;;;;;0.00;0.00;;;;;;;8.74;60.39;96007.38;5065785;28;20738;-62
2022/12/05 02:41:11;;;;;;;0.00;0.00;;;;;;;8.88;60.30;96014.09;5069576;28;20247;-62
2022/12/05 02:43:50;;;;;;;0.05;0.05;;;;;;;8.51;61.06;96002.00;5054938;28;20604;-62
2022/12/05 02:46:21;;;;;;;0.00;0.00;;;;;;;8.71;60.48;96002.59;5069455;28;20219;-62
2022/12/05 02:48:54;;;;;;;0.00;0.00;;;;;;;8.90;59.84;95991.16;5054356;28;20686;-62
2022/12/05 02:51:24;;;;;;;0.00;0.00;;;;;;;8.99;59.71;95989.84;5062745;28;20220;-63
2022/12/05 02:53:55;;;;;;;0.52;0.52;;;;;;;9.03;59.72;95990.22;5062700;28;20199;-64
2022/12/05 02:56:24;;;;;;;2.30;1.30;;;;;;;8.62;60.43;95988.22;5055679;28;20196;-61
2022/12/05 02:58:53;;;;;;;0.15;0.15;;;;;;;8.76;60.06;95981.84;5069226;28;20205;-62
2022/12/05 03:01:24;;;;;;;0.08;0.08;;;;;;;8.58;61.18;95986.25;5068970;28;20621;-63
2022/12/05 03:03:51;;;;;;;1.75;1.23;;;;;;;8.81;60.30;95991.66;5069254;28;20250;-62
2022/12/05 03:06:50;;;;;;;0.35;0.35;;;;;;;8.81;59.95;95987.22;5068977;28;20204;-62
2022/12/05 03:09:26;;;;;;;0.00;0.00;;;;;;;8.71;60.30;95980.91;5068402;28;20733;-63
2022/12/05 03:12:31;;;;;;;0.85;0.38;;;;;;;8.87;60.27;95986.34;5057153;28;20272;-63
2022/12/05 03:15:04;;;;;;;0.30;0.30;;;;;;;8.83;59.74;95987.78;5041622;28;20227;-64
2022/12/05 03:17:35;;;;;;;0.05;0.05;;;;;;;8.79;60.67;95984.03;5069023;28;20671;-63
2022/12/05 03:20:08;;;;;;;0.08;0.08;;;;;;;8.74;59.82;95990.94;5069072;28;20651;-62
2022/12/05 03:23:02;;;;;;;0.10;0.10;;;;;;;8.84;59.81;95997.25;5057721;28;20291;-62
2022/12/05 03:25:40;;;;;;;0.00;0.00;;;;;;;8.94;59.78;95983.69;5057253;28;20196;-63
2022/12/05 03:28:36;;;;;;;0.35;0.35;;;;;;;8.90;59.35;95991.16;5067862;28;20195;-64
2022/12/05 03:31:09;;;;;;;0.10;0.10;;;;;;;8.69;60.19;95999.41;5050114;28;20235;-63
2022/12/05 03:33:41;;;;;;;0.00;0.00;;;;;;;8.84;60.08;95994.63;5054218;28;20192;-63
2022/12/05 03:36:18;;;;;;;0.45;0.45;;;;;;;8.73;59.70;96000.56;5058215;28;20196;-62
2022/12/05 03:38:52;;;;;;;0.85;0.63;;;;;;;8.86;59.33;95995.22;5067367;28;20269;-62
2022/12/05 03:41:41;;;;;;;0.10;0.10;;;;;;;9.08;58.86;95992.97;5069507;28;20935;-63
2022/12/05 03:44:23;;;;;;;0.00;0.00;;;;;;;9.09;58.70;95995.34;5055533;28;20635;-62
2022/12/05 03:46:58;;;;;;;0.00;0.00;;;;;;;9.11;58.48;95988.09;5067663;28;20207;-62
2022/12/05 03:49:33;;;;;;;0.30;0.30;;;;;;;9.27;58.08;95996.34;5049270;28;20200;-61
2022/12/05 03:52:03;;;;;;;0.10;0.10;;;;;;;9.38;58.08;95993.00;5052383;28;20219;-62
2022/12/05 03:54:44;;;;;;;0.00;0.00;;;;;;;9.25;58.57;96001.00;5067809;28;20200;-62
2022/12/05 03:57:22;;;;;;;0.20;0.20;;;;;;;9.23;58.84;96003.03;5059917;28;20223;-63
2022/12/05 04:00:00;;;;;;;0.00;0.00;;;;;;;8.91;59.53;96008.44;5052554;28;20258;-62
2022/12/05 04:02:30;;;;;;;1.92;0.93;;;;;;;9.18;59.17;96004.50;5052057;28;20208;-63
2022/12/05 04:05:05;;;;;;;0.00;0.00;;;;;;;9.07;59.21;96004.41;5052326;28;20204;-63
2022/12/05 04:07:36;;;;;;;0.40;0.40;;;;;;;9.11;59.23;96003.78;5052159;28;20584;-62
2022/12/05 04:10:16;;;;;;;0.17;0.17;;;;;;;9.21;58.62;96001.44;5052214;28;20453;-61
2022/12/05 04:12:45;;;;;;;0.13;0.13;;;;;;;8.86;59.73;95995.22;5065754;28;20199;-63
2022/12/05 04:15:26;;;;;;;0.57;0.57;;;;;;;9.01;59.47;95997.47;5059466;28;20200;-63
2022/12/05 04:17:53;;;;;;;0.30;0.30;;;;;;;8.94;59.74;95989.69;5038676;28;20219;-61
2022/12/05 04:23:09;;;;;;;0.28;0.28;;;;;;;9.11;59.27;95982.84;5066036;28;20208;-64
2022/12/05 04:25:47;;;;;;;0.57;0.57;;;;;;;9.18;59.19;95982.75;5060217;28;20227;-62
2022/12/05 04:28:26;;;;;;;0.03;0.03;;;;;;;9.30;58.42;95977.59;5055258;28;20639;-64
2022/12/05 04:31:23;;;;;;;0.43;0.43;;;;;;;9.30;58.50;95974.97;5061937;28;20272;-62
2022/12/05 04:33:57;;;;;;;0.13;0.13;;;;;;;9.28;58.78;95982.25;5051870;28;20676;-63
2022/12/05 04:36:35;;;;;;;0.20;0.20;;;;;;;9.22;58.78;95981.31;5051777;28;20227;-62
2022/12/05 04:39:07;;;;;;;0.40;0.40;;;;;;;9.25;58.69;95977.47;5058258;28;20382;-62
2022/12/05 04:41:44;;;;;;;0.63;0.10;;;;;;;8.89;59.63;95976.47;5071473;28;20199;-61
2022/12/05 04:44:15;;;;;;;1.55;1.42;;;;;;;9.03;59.06;95990.22;5071571;28;20210;-63
2022/12/05 04:46:45;;;;;;;0.10;0.10;;;;;;;9.07;59.35;95992.16;5057449;28;20223;-62
2022/12/05 04:49:18;;;;;;;0.57;0.57;;;;;;;9.29;58.75;96002.19;5057869;28;20663;-62
2022/12/05 04:51:49;;;;;;;1.75;1.10;;;;;;;9.15;58.34;95984.03;5061361;28;20323;-62
2022/12/05 04:54:21;;;;;;;0.00;0.00;;;;;;;9.29;58.56;95999.56;5054064;28;20239;-63
2022/12/05 04:56:53;;;;;;;0.22;0.22;;;;;;;9.25;58.86;96003.63;5062131;28;20299;-63
2022/12/05 04:59:26;;;;;;;0.00;0.00;;;;;;;9.28;58.39;96000.56;5068368;28;20253;-62
2022/12/05 05:01:58;;;;;;;0.08;0.05;;;;;;;9.35;58.21;95993.44;5054794;28;20203;-62
2022/12/05 05:04:36;;;;;;;0.50;0.50;;;;;;;9.04;59.07;96000.44;5064976;28;20216;-63
2022/12/05 05:07:08;;;;;;;0.43;0.38;;;;;;;9.34;58.17;96004.91;5063687;28;20900;-64
2022/12/05 05:09:36;;;;;;;0.57;0.57;;;;;;;9.30;58.54;96009.00;5065425;28;20200;-64
2022/12/05 05:12:03;;;;;;;0.10;0.10;;;;;;;9.18;58.81;96012.34;5063471;28;20223;-63
2022/12/05 05:14:32;;;;;;;0.80;0.80;;;;;;;9.19;58.69;96006.09;5056132;28;20199;-64
2022/12/05 05:16:58;;;;;;;0.55;0.55;;;;;;;9.02;58.96;96026.00;5070437;28;20192;-64
2022/12/05 05:19:26;;;;;;;0.25;0.25;;;;;;;9.10;58.84;96028.31;5060873;28;20195;-62
2022/12/05 05:21:53;;;;;;;0.00;0.00;;;;;;;8.45;60.31;96028.19;5057767;28;20197;-62
2022/12/05 05:24:22;;;;;;;0.43;0.43;;;;;;;8.63;60.61;96031.63;5056514;28;20253;-64
2022/12/05 05:26:49;;;;;;;0.00;0.00;;;;;;;8.53;60.17;96026.09;5071018;28;20192;-63
2022/12/05 05:29:23;;;;;;;0.55;0.43;;;;;;;8.69;60.43;96009.84;5064971;28;20201;-63
2022/12/05 05:31:50;;;;;;;1.33;1.23;;;;;;;8.95;59.41;96030.50;5058452;28;20739;-62
2022/12/05 05:34:16;;;;;;;0.47;0.47;;;;;;;8.89;59.04;96036.59;5060221;28;20283;-64
2022/12/05 05:36:43;;;;;;;0.15;0.15;;;;;;;8.92;59.63;96036.16;5069078;28;20605;-63
2022/12/05 05:39:13;;;;;;;0.38;0.38;;;;;;;9.23;59.03;96026.59;5058349;28;20614;-65
2022/12/05 05:41:42;;;;;;;0.90;0.90;;;;;;;9.50;58.67;96025.22;5070269;28;20633;-62
2022/12/05 05:44:09;;;;;;;0.77;0.77;;;;;;;9.48;58.78;96027.28;5057075;28;20195;-63
2022/12/05 05:46:36;;;;;;;0.13;0.13;;;;;;;9.56;58.13;96029.59;5057963;28;20279;-63
2022/12/05 05:49:04;;;;;;;2.47;1.75;;;;;;;9.26;58.83;96026.94;5069815;28;20223;-61
2022/12/05 05:51:31;;;;;;;0.20;0.20;;;;;;;9.03;59.61;96027.59;5062308;28;20307;-64
2022/12/05 05:53:59;;;;;;;0.20;0.20;;;;;;;9.32;59.09;96041.75;5063972;28;20196;-63
2022/12/05 05:56:27;;;;;;;0.17;0.17;;;;;;;9.23;59.61;96039.66;5055848;28;20245;-61
2022/12/05 05:58:59;;;;;;;0.38;0.38;;;;;;;9.34;59.30;96034.50;5056598;28;20289;-64
2022/12/05 06:01:27;;;;;;;1.13;1.02;;;;;;;9.31;60.05;96044.56;5049956;28;20254;-62
2022/12/05 06:03:54;;;;;;;3.42;2.05;;;;;;;9.44;58.77;96039.19;5050086;28;20196;-61
2022/12/05 06:06:22;;;;;;;0.70;0.70;;;;;;;9.05;59.88;96051.69;5053955;28;20196;-63
2022/12/05 06:08:49;;;;;;;1.00;0.93;;;;;;;9.15;59.33;96056.44;5069994;28;20223;-63
2022/12/05 06:11:19;;;;;;;0.52;0.52;;;;;;;9.22;60.89;96036.22;5056015;28;20247;-63
2022/12/05 06:13:53;;;;;;;0.30;0.30;;;;;;;9.16;60.85;96058.81;5059980;28;20396;-64
2022/12/05 06:16:20;;;;;;;0.73;0.73;;;;;;;9.09;60.59;96063.31;5052367;28;20200;-62
2022/12/05 06:18:48;;;;;;;0.85;0.85;;;;;;;9.29;60.09;96062.34;5060974;28;20270;-62
2022/12/05 06:21:16;;;;;;;1.00;0.77;;;;;;;9.00;60.10;96056.78;5063659;28;20655;-63
2022/12/05 06:23:43;;;;;;;0.00;0.00;;;;;;;9.07;60.30;96060.13;5051610;28;20188;-68
2022/12/05 06:26:12;;;;;;;0.40;0.40;;;;;;;9.23;59.89;96047.50;5049716;28;20197;-67
2022/12/05 06:28:40;;;;;;;0.20;0.20;;;;;;;9.29;59.19;96042.19;5063579;28;20475;-62
2022/12/05 06:31:14;;;;;;;1.85;0.85;;;;;;;9.53;59.07;96048.34;5059620;28;20531;-64
2022/12/05 06:33:42;;;;;;;0.10;0.10;;;;;;;9.30;59.42;96048.22;5055304;28;20183;-61
2022/12/05 06:36:12;;;;;;;0.05;0.05;;;;;;;9.56;58.96;96058.38;5069907;28;20461;-61
2022/12/05 06:38:39;;;;;;;0.82;0.73;;;;;;;9.60;58.15;96059.53;5049993;28;20204;-63
2022/12/05 06:41:12;;;;;;;0.20;0.20;;;;;;;9.55;58.34;96062.00;5059645;28;20253;-62
2022/12/05 06:43:39;;;;;;;0.55;0.55;;;;;;;9.59;58.16;96055.31;5066483;28;21020;-63
2022/12/05 06:46:08;;;;;;;0.22;0.22;;;;;;;9.57;57.97;96057.34;5058555;28;20195;-62
2022/12/05 06:48:35;;;;;;;0.30;0.20;;;;;;;9.52;58.08;96051.97;5068723;28;20230;-62
2022/12/05 06:51:03;;;;;;;0.30;0.30;;;;;;;9.55;57.83;96059.38;5061823;28;20471;-61
2022/12/05 06:53:29;;;;;;;0.80;0.73;;;;;;;8.81;59.53;96060.38;5059643;28;20287;-62
2022/12/05 06:55:59;;;;;;;0.10;0.10;;;;;;;9.79;57.52;96053.22;5054933;28;20303;-61
2022/12/05 06:58:26;;;;;;;0.57;0.55;;;;;;;9.81;57.37;96051.19;5069155;28;20192;-62
2022/12/05 07:03:40;;;;;;;0.00;0.00;;;;;;;9.79;56.61;96055.84;5069099;28;20200;-61
2022/12/05 07:06:07;;;;;;;1.00;0.82;;;;;;;9.72;57.11;96042.06;5067325;28;20678;-63
2022/12/05 07:08:34;;;;;;;6.85;2.03;;;;;;;9.79;57.51;96055.84;5058001;28;20633;-62
2022/12/05 07:11:02;;;;;;;3.57;0.50;;;;;;;9.69;57.37;96056.38;5051012;28;20640;-62
2022/12/05 07:13:29;;;;;;;0.38;0.32;;;;;;;9.38;58.42;96066.25;5062519;28;21250;-61
2022/12/05 07:15:57;;;;;;;0.00;0.00;;;;;;;9.68;57.72;96053.97;5062399;28;20192;-63
2022/12/05 07:18:25;;;;;;;0.00;0.00;;;;;;;9.39;58.42;96068.63;5069612;28;20198;-63
2022/12/05 07:21:01;;;;;;;0.38;0.38;;;;;;;9.37;58.17;96070.66;5057894;28;20211;-62
2022/12/05 07:23:44;;;;;;;1.27;1.17;;;;;;;9.78;58.07;96067.34;5049192;28;20227;-61
2022/12/05 07:26:14;;;;;;;0.35;0.35;;;;;;;9.61;57.69;96061.94;5062832;28;20195;-61
2022/12/05 07:28:41;;;;;;;0.63;0.63;;;;;;;9.86;57.32;96061.78;5054999;28;20220;-62
2022/12/05 07:31:10;;;;;;;2.95;1.20;;;;;;;9.98;57.43;96062.66;5072407;28;20212;-61
2022/12/05 07:33:37;;;;;;;0.35;0.35;;;;;;;9.67;57.46;96065.50;5058021;28;20230;-63
2022/12/05 07:36:10;;;;;;;0.90;0.90;;;;;;;9.68;57.83;96074.91;5073211;28;20294;-63
2022/12/05 07:38:38;;;;;;;0.20;0.20;;;;;;;9.49;58.58;96078.59;5069188;28;20279;-62
2022/12/05 07:41:10;;;;;;;0.93;0.93;;;;;;;9.65;57.89;96072.75;5062581;28;20214;-62
2022/12/05 07:43:40;;;;;;;0.52;0.43;;;;;;;9.77;57.47;96076.22;5070021;28;20713;-63
2022/12/05 07:46:10;;;;;;;18.98;1.38;;;;;;;9.97;56.79;96066.28;5061897;28;20219;-63
2022/12/05 07:48:38;;;;;;;2.63;0.73;;;;;;;9.84;57.00;96076.91;5058146;28;20224;-62
2022/12/05 07:51:07;;;;;;;0.20;0.20;;;;;;;9.68;57.75;96093.25;5068242;28;20530;-62
2022/12/05 07:53:34;;;;;;;0.40;0.40;;;;;;;9.60;57.81;96090.94;5063223;28;20228;-61
2022/12/05 07:56:04;;;;;;;0.40;0.40;;;;;;;9.71;57.72;96072.66;5069677;28;20450;-64
2022/12/05 07:58:32;;;;;;;0.00;0.00;;;;;;;9.96;57.31;96075.94;5062276;28;20228;-62
2022/12/05 08:01:11;;;;;;;2.67;1.10;;;;;;;9.88;57.50;96073.66;5056830;28;20196;-64
2022/12/05 08:03:38;;;;;;;2.63;0.50;;;;;;;9.95;57.21;96079.59;5061971;28;20196;-63
2022/12/05 08:06:18;;;;;;;0.43;0.40;;;;;;;10.03;57.07;96071.44;5057995;28;20443;-62
2022/12/05 08:08:48;;;;;;;0.00;0.00;;;;;;;9.93;57.38;96065.13;5072420;28;20200;-63
2022/12/05 08:11:29;;;;;;;0.07;0.07;;;;;;;10.15;57.13;96058.38;5069333;28;20215;-62
2022/12/05 08:13:57;;;;;;;0.83;0.83;;;;;;;10.08;57.22;96068.13;5052422;28;20888;-62
2022/12/05 08:16:27;;;;;;;0.10;0.10;;;;;;;9.94;56.79;96066.72;5055228;28;20448;-62
2022/12/05 08:19:03;;;;;;;0.50;0.50;;;;;;;10.19;56.60;96073.44;5072546;28;20434;-62
2022/12/05 08:21:30;;;;;;;2.07;1.70;;;;;;;10.30;56.24;96073.69;5072244;28;20442;-62
2022/12/05 08:23:57;;;;;;;0.10;0.10;;;;;;;10.28;56.18;96071.28;5072091;28;20540;-61
2022/12/05 08:26:29;;;;;;;0.55;0.43;;;;;;;10.19;56.52;96073.44;5070961;28;20200;-62
2022/12/05 08:28:59;;;;;;;0.60;0.40;;;;;;;10.44;56.24;96077.72;5059962;28;20655;-62
2022/12/05 08:31:28;;;;;;;0.90;0.90;;;;;;;10.53;55.87;96074.53;5057370;28;20863;-63
2022/12/05 08:33:58;;;;;;;0.40;0.40;;;;;;;10.43;55.78;96076.91;5051642;28;20500;-63
2022/12/05 08:36:27;;;;;;;0.00;0.00;;;;;;;10.47;56.18;96072.81;5065146;28;20506;-63
2022/12/05 08:38:56;;;;;;;0.10;0.10;;;;;;;10.50;55.58;96066.31;5065935;28;20485;-63
2022/12/05 08:41:27;;;;;;;0.57;0.57;;;;;;;10.62;55.48;96070.53;5063659;28;20249;-62
2022/12/05 08:44:04;;;;;;;0.30;0.30;;;;;;;10.51;55.48;96068.69;5053125;28;20443;-62
2022/12/05 08:46:34;;;;;;;0.00;0.00;;;;;;;10.24;55.61;96072.75;5064042;28;20195;-62
2022/12/05 08:49:02;;;;;;;1.07;0.97;;;;;;;10.51;55.62;96073.94;5052130;28;20471;-63
2022/12/05 08:51:30;;;;;;;0.00;0.00;;;;;;;10.61;55.14;96073.41;5033558;28;20927;-63
2022/12/05 08:53:56;;;;;;;0.30;0.27;;;;;;;10.47;55.20;96064.97;5065406;28;20831;-62
2022/12/05 08:56:24;;;;;;;1.03;0.77;;;;;;;10.28;55.82;96062.63;5051990;28;20443;-62
2022/12/05 08:58:54;;;;;;;0.63;0.63;;;;;;;10.70;54.77;96067.59;5064619;28;20442;-62
2022/12/05 09:01:31;;;;;;;1.47;0.60;;;;;;;10.84;54.66;96057.66;5065782;28;20443;-62
2022/12/05 09:03:59;;;;;;;0.23;0.23;;;;;;;10.82;54.62;96060.53;5051389;28;20965;-62
2022/12/05 09:06:28;;;;;;;0.13;0.13;;;;;;;10.82;54.74;96065.75;5065088;28;20445;-62
2022/12/05 09:09:01;;;;;;;0.27;0.27;;;;;;;11.02;54.32;96060.19;5062650;28;20961;-62
2022/12/05 09:11:31;;;;;;;0.10;0.10;;;;;;;10.65;54.63;96069.31;5056763;28;20882;-61
2022/12/05 09:13:59;;;;;;;0.00;0.00;;;;;;;10.97;54.27;96063.50;5071238;28;20442;-63
2022/12/05 09:16:29;;;;;;;0.23;0.07;;;;;;;11.03;54.06;96056.53;5068120;28;20441;-62
2022/12/05 09:19:09;;;;;;;2.30;1.73;;;;;;;11.02;53.91;96060.97;5061832;28;20471;-62
2022/12/05 09:21:36;;;;;;;0.27;0.27;;;;;;;11.03;53.58;96051.28;5070463;28;20442;-61
2022/12/05 09:24:03;;;;;;;0.10;0.10;;;;;;;10.71;53.49;96050.81;5070944;28;20914;-62
2022/12/05 09:26:30;;;;;;;0.40;0.40;;;;;;;10.88;53.40;96036.00;5056624;28;20443;-62
2022/12/05 09:28:57;;;;;;;0.23;0.23;;;;;;;11.21;53.09;96046.69;5070834;28;20441;-61
2022/12/05 09:31:26;;;;;;;0.50;0.50;;;;;;;11.19;53.52;96040.06;5070066;28;20489;-63
2022/12/05 09:33:53;;;;;;;0.00;0.00;;;;;;;11.14;53.27;96046.03;5056876;28;20507;-63
2022/12/05 09:36:26;;;;;;;6.23;0.83;;;;;;;10.89;53.96;96048.09;5070266;28;20897;-63
2022/12/05 09:38:57;;;;;;;0.10;0.10;;;;;;;11.00;53.39;96042.03;5056304;28;20437;-61
2022/12/05 09:44:41;;;;;;;0.30;0.30;;;;;;;10.89;54.31;96050.72;5060354;28;20507;-61
2022/12/05 09:47:22;;;;;;;0.03;0.03;;;;;;;11.10;53.44;96041.47;5070270;28;20883;-63
2022/12/05 09:50:00;;;;;;;0.00;0.00;;;;;;;10.92;53.19;96033.72;5059147;28;20481;-61
2022/12/05 09:52:30;;;;;;;0.20;0.20;;;;;;;11.14;53.11;96032.91;5049401;28;20540;-63
2022/12/05 09:55:05;;;;;;;0.00;0.00;;;;;;;10.88;53.56;96033.41;5058966;28;20446;-62
2022/12/05 09:57:41;;;;;;;0.08;0.05;;;;;;;10.83;54.13;96030.66;5070205;28;20438;-61
2022/12/05 10:00:09;;;;;;;0.10;0.10;;;;;;;10.91;53.92;96019.03;5070447;28;20199;-62
2022/12/05 10:03:09;;;;;;;0.27;0.27;;;;;;;10.73;54.50;96024.41;5069208;28;20469;-63
2022/12/05 10:06:13;;;;;;;0.33;0.33;;;;;;;11.10;53.79;96025.72;5050234;28;20439;-62
2022/12/05 10:08:55;;;;;;;0.00;0.00;;;;;;;11.03;53.78;96020.63;5059059;28;20507;-63
2022/12/05 10:11:45;;;;;;;0.27;0.27;;;;;;;11.22;53.23;96014.19;5066571;28;20537;-63
2022/12/05 10:14:34;;;;;;;0.00;0.00;;;;;;;10.94;53.78;96015.94;5049991;28;20450;-63
2022/12/05 10:17:14;;;;;;;1.00;0.90;;;;;;;10.98;54.22;96017.88;5058078;28;20860;-62
2022/12/05 10:19:44;;;;;;;0.20;0.20;;;;;;;11.02;53.45;96008.50;5053651;28;20530;-62
2022/12/05 10:22:23;;;;;;;0.30;0.30;;;;;;;11.11;53.73;96004.50;5058129;28;20477;-62
2022/12/05 10:24:54;;;;;;;0.20;0.20;;;;;;;10.82;53.41;96002.06;5069584;28;20437;-62
2022/12/05 10:27:53;;;;;;;0.10;0.10;;;;;;;10.83;53.78;96019.38;5069075;28;20528;-61
2022/12/05 10:30:23;;;;;;;0.00;0.00;;;;;;;10.84;53.96;96007.84;5063276;28;20451;-65
2022/12/05 10:33:02;;;;;;;0.43;0.43;;;;;;;10.95;54.02;96012.28;5049910;28;20508;-62
2022/12/05 10:35:38;;;;;;;0.10;0.10;;;;;;;10.88;54.23;96007.16;5069842;28;20499;-63
2022/12/05 10:38:23;;;;;;;0.00;0.00;;;;;;;11.09;53.71;96009.19;5056492;28;20451;-63
2022/12/05 10:40:54;;;;;;;0.10;0.10;;;;;;;10.90;53.87;96005.13;5057106;28;20472;-63
2022/12/05 10:43:27;;;;;;;0.53;0.53;;;;;;;10.95;53.83;95997.34;5055541;28;20565;-63
2022/12/05 10:45:55;;;;;;;0.00;0.00;;;;;;;10.99;53.69;95997.69;5057120;28;20438;-62
2022/12/05 10:48:22;;;;;;;0.30;0.30;;;;;;;11.20;53.19;95995.25;5055850;28;20895;-61
2022/12/05 10:50:52;;;;;;;0.70;0.70;;;;;;;11.32;52.89;95991.78;5066759;28;20454;-63
2022/12/05 10:53:27;;;;;;;0.30;0.30;;;;;;;11.15;53.30;95987.28;5058670;28;20520;-64
2022/12/05 10:55:54;;;;;;;2.93;1.53;;;;;;;11.21;53.26;95981.13;5055276;28;20478;-62
2022/12/05 10:58:54;;;;;;;0.63;0.63;;;;;;;11.28;53.42;95986.22;5058307;28;20822;-62
2022/12/05 11:01:23;;;;;;;0.00;0.00;;;;;;;11.07;53.32;95990.28;5068563;28;20482;-62
2022/12/05 11:03:57;;;;;;;0.10;0.10;;;;;;;10.84;53.60;95994.72;5058792;28;20512;-63
2022/12/05 11:06:29;;;;;;;0.47;0.30;;;;;;;10.83;53.78;95988.72;5072041;28;20889;-62
2022/12/05 11:08:58;;;;;;;0.57;0.57;;;;;;;11.02;53.75;95986.75;5073503;28;20441;-64
2022/12/05 11:11:32;;;;;;;0.00;0.00;;;;;;;10.99;53.74;95974.91;5073495;28;20442;-63
2022/12/05 11:14:21;;;;;;;0.00;0.00;;;;;;;10.99;53.41;95977.50;5073491;28;21091;-63
2022/12/05 11:16:57;;;;;;;0.47;0.47;;;;;;;10.81;53.63;95979.47;5059322;28;20446;-62
2022/12/05 11:19:37;;;;;;;0.43;0.40;;;;;;;10.69;53.50;95979.47;5073150;28;20540;-62
2022/12/05 11:22:06;;;;;;;0.20;0.20;;;;;;;10.60;54.01;95972.22;5060434;28;20445;-63
2022/12/05 11:24:38;;;;;;;0.03;0.03;;;;;;;10.52;54.12;95973.34;5059152;28;20450;-62
2022/12/05 11:27:17;;;;;;;1.23;0.50;;;;;;;10.68;53.89;95964.78;5053301;28;20446;-62
2022/12/05 11:29:57;;;;;;;0.60;0.60;;;;;;;10.52;54.37;95952.38;5067021;28;20447;-62
2022/12/05 11:32:27;;;;;;;0.10;0.10;;;;;;;10.37;54.59;95966.94;5053654;28;21016;-62
2022/12/05 11:35:10;;;;;;;0.20;0.20;;;;;;;10.43;54.45;95959.00;5067102;28;20437;-62
2022/12/05 11:38:00;;;;;;;0.03;0.03;;;;;;;10.74;54.42;95956.00;5061716;28;20477;-64
2022/12/05 11:41:00;;;;;;;0.27;0.27;;;;;;;10.52;54.81;95952.38;5073448;28;20442;-63
2022/12/05 11:43:51;;;;;;;0.20;0.20;;;;;;;10.65;54.11;95944.28;5071838;28;20434;-62
2022/12/05 11:46:53;;;;;;;1.13;0.97;;;;;;;10.84;53.88;95943.09;5063324;28;20434;-63
2022/12/05 11:49:41;;;;;;;0.27;0.27;;;;;;;10.71;54.24;95939.94;5010602;28;20452;-63
2022/12/05 11:52:37;;;;;;;0.00;0.00;;;;;;;10.60;54.61;95941.53;5056415;28;20443;-63
2022/12/05 11:55:17;;;;;;;0.20;0.20;;;;;;;10.68;54.20;95941.19;5038282;28;20451;-64
2022/12/05 11:58:06;;;;;;;0.00;0.00;;;;;;;10.22;55.35;95938.59;5069469;28;20452;-62
2022/12/05 12:00:51;;;;;;;0.23;0.23;;;;;;;10.56;55.16;95932.56;5060044;28;20443;-62
2022/12/05 12:03:43;;;;;;;1.23;0.47;;;;;;;10.31;55.89;95929.38;5052282;28;21017;-63
2022/12/05 12:06:26;;;;;;;0.33;0.33;;;;;;;10.30;55.56;95934.84;5065950;28;20434;-62
2022/12/05 12:09:16;;;;;;;0.10;0.10;;;;;;;10.12;55.73;95933.13;5062922;28;20442;-62
2022/12/05 12:11:54;;;;;;;0.20;0.20;;;;;;;10.32;55.42;95923.13;5058447;28;20572;-63
2022/12/05 12:14:40;;;;;;;0.20;0.20;;;;;;;10.51;55.64;95923.78;5072150;28;20477;-63
2022/12/05 12:17:23;;;;;;;3.20;0.83;;;;;;;10.21;56.13;95921.28;5059995;28;20510;-62